Terminal Aerodrome Forecast
Issued by NWS

Current Version | Previous Version | Graphics & Text | Print | Product List | Glossary Off
Versions: 1 2 3 4 5 6 7 8 9 10 11 12 13 14 15 16 17 18 19 20 21 22 23

000
FTUS41 KPBZ 110900 AAB
TAFHLG
TAF AMD
KHLG 110935Z 1110/1206 VRB03KT 2SM BR SCT060
      TEMPO 1110/1111 4SM BR
     FM111300 VRB02KT P6SM SCT050=

USA.gov is the U.S. government's official web portal to all federal, state and local government web resources and services.